sensor_id;sensor_type;location;lat;lon;timestamp;temperature;humidity
67354;SHT30;54238;52.278;21.056;2023-04-03T00:02:07;3.89;55.71
67354;SHT30;54238;52.278;21.056;2023-04-03T00:04:34;3.83;55.58
67354;SHT30;54238;52.278;21.056;2023-04-03T00:10:12;3.74;55.64
67354;SHT30;54238;52.278;21.056;2023-04-03T00:12:40;3.71;55.82
67354;SHT30;54238;52.278;21.056;2023-04-03T00:15:09;3.68;55.73
67354;SHT30;54238;52.278;21.056;2023-04-03T00:17:40;3.63;55.84
67354;SHT30;54238;52.278;21.056;2023-04-03T00:20:10;3.56;55.81
67354;SHT30;54238;52.278;21.056;2023-04-03T00:22:39;3.51;55.96
67354;SHT30;54238;52.278;21.056;2023-04-03T00:25:11;3.46;55.81
67354;SHT30;54238;52.278;21.056;2023-04-03T00:27:39;3.40;55.82
67354;SHT30;54238;52.278;21.056;2023-04-03T00:30:16;3.36;55.80
67354;SHT30;54238;52.278;21.056;2023-04-03T00:32:50;3.33;55.80
67354;SHT30;54238;52.278;21.056;2023-04-03T00:35:29;3.30;56.02
67354;SHT30;54238;52.278;21.056;2023-04-03T00:42:02;3.23;55.94
67354;SHT30;54238;52.278;21.056;2023-04-03T00:46:59;3.19;56.06
67354;SHT30;54238;52.278;21.056;2023-04-03T00:49:33;3.16;55.99
67354;SHT30;54238;52.278;21.056;2023-04-03T00:52:05;3.10;55.99
67354;SHT30;54238;52.278;21.056;2023-04-03T00:54:45;3.06;56.02
67354;SHT30;54238;52.278;21.056;2023-04-03T00:57:15;3.00;55.95
67354;SHT30;54238;52.278;21.056;2023-04-03T00:59:46;2.93;56.21
67354;SHT30;54238;52.278;21.056;2023-04-03T01:02:22;2.87;56.27
67354;SHT30;54238;52.278;21.056;2023-04-03T01:04:49;2.84;56.29
67354;SHT30;54238;52.278;21.056;2023-04-03T01:09:49;2.80;56.22
67354;SHT30;54238;52.278;21.056;2023-04-03T01:12:27;2.76;56.18
67354;SHT30;54238;52.278;21.056;2023-04-03T01:15:22;2.72;56.12
67354;SHT30;54238;52.278;21.056;2023-04-03T01:17:57;2.68;56.23
67354;SHT30;54238;52.278;21.056;2023-04-03T01:23:52;2.60;56.26
67354;SHT30;54238;52.278;21.056;2023-04-03T01:26:47;2.55;56.43
67354;SHT30;54238;52.278;21.056;2023-04-03T01:29:17;2.53;56.36
67354;SHT30;54238;52.278;21.056;2023-04-03T01:34:28;2.47;56.46
67354;SHT30;54238;52.278;21.056;2023-04-03T01:36:59;2.43;56.66
67354;SHT30;54238;52.278;21.056;2023-04-03T01:39:29;2.40;56.72
67354;SHT30;54238;52.278;21.056;2023-04-03T01:41:58;2.35;56.82
67354;SHT30;54238;52.278;21.056;2023-04-03T01:44:27;2.30;56.92
67354;SHT30;54238;52.278;21.056;2023-04-03T01:46:57;2.28;57.00
67354;SHT30;54238;52.278;21.056;2023-04-03T01:49:27;2.28;56.91
67354;SHT30;54238;52.278;21.056;2023-04-03T01:51:54;2.25;56.85
67354;SHT30;54238;52.278;21.056;2023-04-03T01:54:21;2.23;56.92
67354;SHT30;54238;52.278;21.056;2023-04-03T01:56:53;2.19;56.96
67354;SHT30;54238;52.278;21.056;2023-04-03T01:59:23;2.17;57.09
67354;SHT30;54238;52.278;21.056;2023-04-03T02:01:50;2.16;57.04
67354;SHT30;54238;52.278;21.056;2023-04-03T02:04:17;2.13;57.11
67354;SHT30;54238;52.278;21.056;2023-04-03T02:06:47;2.11;57.11
67354;SHT30;54238;52.278;21.056;2023-04-03T02:09:16;2.08;57.26
67354;SHT30;54238;52.278;21.056;2023-04-03T02:11:45;2.04;57.33
67354;SHT30;54238;52.278;21.056;2023-04-03T02:14:14;2.02;57.38
67354;SHT30;54238;52.278;21.056;2023-04-03T02:16:44;1.98;57.44
67354;SHT30;54238;52.278;21.056;2023-04-03T02:19:13;1.95;57.56
67354;SHT30;54238;52.278;21.056;2023-04-03T02:21:42;1.95;57.56
67354;SHT30;54238;52.278;21.056;2023-04-03T02:24:12;1.93;57.72
67354;SHT30;54238;52.278;21.056;2023-04-03T02:26:42;1.90;57.77
67354;SHT30;54238;52.278;21.056;2023-04-03T02:29:11;1.86;57.83
67354;SHT30;54238;52.278;21.056;2023-04-03T02:31:41;1.85;57.74
67354;SHT30;54238;52.278;21.056;2023-04-03T02:34:08;1.84;57.84
67354;SHT30;54238;52.278;21.056;2023-04-03T02:36:37;1.81;57.82
67354;SHT30;54238;52.278;21.056;2023-04-03T02:39:07;1.79;57.86
67354;SHT30;54238;52.278;21.056;2023-04-03T02:41:35;1.75;57.91
67354;SHT30;54238;52.278;21.056;2023-04-03T02:44:05;1.72;58.11
67354;SHT30;54238;52.278;21.056;2023-04-03T02:46:37;1.71;58.15
67354;SHT30;54238;52.278;21.056;2023-04-03T02:49:06;1.68;58.29
67354;SHT30;54238;52.278;21.056;2023-04-03T02:51:34;1.67;58.30
67354;SHT30;54238;52.278;21.056;2023-04-03T02:54:04;1.65;58.28
67354;SHT30;54238;52.278;21.056;2023-04-03T02:56:34;1.64;58.35
67354;SHT30;54238;52.278;21.056;2023-04-03T02:59:03;1.63;58.39
67354;SHT30;54238;52.278;21.056;2023-04-03T03:01:33;1.60;58.43
67354;SHT30;54238;52.278;21.056;2023-04-03T03:04:04;1.58;58.59
67354;SHT30;54238;52.278;21.056;2023-04-03T03:06:31;1.55;58.79
67354;SHT30;54238;52.278;21.056;2023-04-03T03:09:05;1.52;58.80
67354;SHT30;54238;52.278;21.056;2023-04-03T03:11:35;1.50;58.78
67354;SHT30;54238;52.278;21.056;2023-04-03T03:14:05;1.46;58.87
67354;SHT30;54238;52.278;21.056;2023-04-03T03:16:37;1.43;58.93
67354;SHT30;54238;52.278;21.056;2023-04-03T03:19:05;1.43;59.00
67354;SHT30;54238;52.278;21.056;2023-04-03T03:21:33;1.40;59.20
67354;SHT30;54238;52.278;21.056;2023-04-03T03:24:00;1.34;59.35
67354;SHT30;54238;52.278;21.056;2023-04-03T03:26:28;1.31;59.32
67354;SHT30;54238;52.278;21.056;2023-04-03T03:29:00;1.30;59.31
67354;SHT30;54238;52.278;21.056;2023-04-03T03:31:28;1.29;59.40
67354;SHT30;54238;52.278;21.056;2023-04-03T03:33:58;1.25;59.54
67354;SHT30;54238;52.278;21.056;2023-04-03T03:36:30;1.23;59.60
67354;SHT30;54238;52.278;21.056;2023-04-03T03:39:00;1.23;59.61
67354;SHT30;54238;52.278;21.056;2023-04-03T03:41:29;1.23;59.62
67354;SHT30;54238;52.278;21.056;2023-04-03T03:43:58;1.21;59.59
67354;SHT30;54238;52.278;21.056;2023-04-03T03:46:25;1.19;59.68
67354;SHT30;54238;52.278;21.056;2023-04-03T03:48:52;1.19;59.81
67354;SHT30;54238;52.278;21.056;2023-04-03T03:51:19;1.16;59.90
67354;SHT30;54238;52.278;21.056;2023-04-03T03:53:46;1.13;59.90
67354;SHT30;54238;52.278;21.056;2023-04-03T03:56:18;1.12;59.91
67354;SHT30;54238;52.278;21.056;2023-04-03T03:58:47;1.08;60.00
67354;SHT30;54238;52.278;21.056;2023-04-03T04:01:17;1.06;59.94
67354;SHT30;54238;52.278;21.056;2023-04-03T04:03:44;1.05;59.96
67354;SHT30;54238;52.278;21.056;2023-04-03T04:06:17;1.04;59.95
67354;SHT30;54238;52.278;21.056;2023-04-03T04:08:49;1.03;60.01
67354;SHT30;54238;52.278;21.056;2023-04-03T04:11:22;1.00;60.13
67354;SHT30;54238;52.278;21.056;2023-04-03T04:13:53;0.97;60.22
67354;SHT30;54238;52.278;21.056;2023-04-03T04:16:22;0.98;60.35
67354;SHT30;54238;52.278;21.056;2023-04-03T04:18:52;0.98;60.42
67354;SHT30;54238;52.278;21.056;2023-04-03T04:21:27;0.97;60.54
67354;SHT30;54238;52.278;21.056;2023-04-03T04:23:56;0.96;60.55
67354;SHT30;54238;52.278;21.056;2023-04-03T04:26:23;0.97;60.52
67354;SHT30;54238;52.278;21.056;2023-04-03T04:28:51;0.97;60.45
67354;SHT30;54238;52.278;21.056;2023-04-03T04:31:25;0.97;60.52
67354;SHT30;54238;52.278;21.056;2023-04-03T04:33:55;0.98;60.43
67354;SHT30;54238;52.278;21.056;2023-04-03T04:36:22;0.99;60.45
67354;SHT30;54238;52.278;21.056;2023-04-03T04:38:49;1.00;60.53
67354;SHT30;54238;52.278;21.056;2023-04-03T04:41:21;1.01;60.69
67354;SHT30;54238;52.278;21.056;2023-04-03T04:43:50;1.02;60.56
67354;SHT30;54238;52.278;21.056;2023-04-03T04:46:21;1.04;60.51
67354;SHT30;54238;52.278;21.056;2023-04-03T04:48:53;1.03;60.61
67354;SHT30;54238;52.278;21.056;2023-04-03T04:51:20;1.06;60.63
67354;SHT30;54238;52.278;21.056;2023-04-03T04:53:49;1.09;60.53
67354;SHT30;54238;52.278;21.056;2023-04-03T04:56:19;1.10;60.50
67354;SHT30;54238;52.278;21.056;2023-04-03T04:58:50;1.09;60.56
67354;SHT30;54238;52.278;21.056;2023-04-03T05:01:23;1.12;60.52
67354;SHT30;54238;52.278;21.056;2023-04-03T05:03:55;1.14;60.42
67354;SHT30;54238;52.278;21.056;2023-04-03T05:06:25;1.15;60.34
67354;SHT30;54238;52.278;21.056;2023-04-03T05:08:52;1.16;60.19
67354;SHT30;54238;52.278;21.056;2023-04-03T05:11:19;1.18;60.06
67354;SHT30;54238;52.278;21.056;2023-04-03T05:13:47;1.21;60.12
67354;SHT30;54238;52.278;21.056;2023-04-03T05:18:54;1.23;59.97
67354;SHT30;54238;52.278;21.056;2023-04-03T05:21:21;1.24;59.96
67354;SHT30;54238;52.278;21.056;2023-04-03T05:23:51;1.28;59.80
67354;SHT30;54238;52.278;21.056;2023-04-03T05:26:21;1.30;59.72
67354;SHT30;54238;52.278;21.056;2023-04-03T05:28:53;1.31;59.70
67354;SHT30;54238;52.278;21.056;2023-04-03T05:31:20;1.36;59.63
67354;SHT30;54238;52.278;21.056;2023-04-03T05:33:50;1.38;59.53
67354;SHT30;54238;52.278;21.056;2023-04-03T05:36:17;1.40;59.39
67354;SHT30;54238;52.278;21.056;2023-04-03T05:38:45;1.39;59.18
67354;SHT30;54238;52.278;21.056;2023-04-03T05:41:13;1.39;59.32
67354;SHT30;54238;52.278;21.056;2023-04-03T05:43:42;1.44;59.38
67354;SHT30;54238;52.278;21.056;2023-04-03T05:46:12;1.46;59.27
67354;SHT30;54238;52.278;21.056;2023-04-03T05:48:42;1.51;59.11
67354;SHT30;54238;52.278;21.056;2023-04-03T05:51:16;1.54;58.68
67354;SHT30;54238;52.278;21.056;2023-04-03T05:53:55;1.54;58.61
67354;SHT30;54238;52.278;21.056;2023-04-03T05:56:35;1.55;58.83
67354;SHT30;54238;52.278;21.056;2023-04-03T05:59:04;1.60;58.92
67354;SHT30;54238;52.278;21.056;2023-04-03T06:01:32;1.66;59.39
67354;SHT30;54238;52.278;21.056;2023-04-03T06:04:01;1.71;59.43
67354;SHT30;54238;52.278;21.056;2023-04-03T06:07:15;1.74;59.28
67354;SHT30;54238;52.278;21.056;2023-04-03T06:09:27;1.80;59.22
67354;SHT30;54238;52.278;21.056;2023-04-03T06:11:58;1.87;59.02
67354;SHT30;54238;52.278;21.056;2023-04-03T06:14:30;1.93;59.11
67354;SHT30;54238;52.278;21.056;2023-04-03T06:17:02;2.02;58.91
67354;SHT30;54238;52.278;21.056;2023-04-03T06:19:33;2.16;59.18
67354;SHT30;54238;52.278;21.056;2023-04-03T06:22:03;2.32;58.70
67354;SHT30;54238;52.278;21.056;2023-04-03T06:24:35;2.37;58.07
67354;SHT30;54238;52.278;21.056;2023-04-03T06:27:05;2.37;57.44
67354;SHT30;54238;52.278;21.056;2023-04-03T06:29:39;2.32;56.88
67354;SHT30;54238;52.278;21.056;2023-04-03T06:32:11;2.29;57.24
67354;SHT30;54238;52.278;21.056;2023-04-03T06:34:43;2.33;57.05
67354;SHT30;54238;52.278;21.056;2023-04-03T06:37:20;2.35;56.94
67354;SHT30;54238;52.278;21.056;2023-04-03T06:39:55;2.35;57.06
67354;SHT30;54238;52.278;21.056;2023-04-03T06:42:27;2.39;57.07
67354;SHT30;54238;52.278;21.056;2023-04-03T06:44:57;2.47;56.75
67354;SHT30;54238;52.278;21.056;2023-04-03T06:47:24;2.54;56.70
67354;SHT30;54238;52.278;21.056;2023-04-03T06:49:53;2.63;56.59
67354;SHT30;54238;52.278;21.056;2023-04-03T06:52:23;2.65;56.20
67354;SHT30;54238;52.278;21.056;2023-04-03T06:54:50;2.70;56.34
67354;SHT30;54238;52.278;21.056;2023-04-03T06:57:25;2.78;56.12
67354;SHT30;54238;52.278;21.056;2023-04-03T06:59:56;2.90;56.05
67354;SHT30;54238;52.278;21.056;2023-04-03T07:02:27;2.98;55.59
67354;SHT30;54238;52.278;21.056;2023-04-03T07:04:58;3.02;55.59
67354;SHT30;54238;52.278;21.056;2023-04-03T07:07:28;3.11;55.62
67354;SHT30;54238;52.278;21.056;2023-04-03T07:09:58;3.21;55.20
67354;SHT30;54238;52.278;21.056;2023-04-03T07:12:27;3.31;54.73
67354;SHT30;54238;52.278;21.056;2023-04-03T07:14:54;3.41;54.37
67354;SHT30;54238;52.278;21.056;2023-04-03T07:17:24;3.51;54.10
67354;SHT30;54238;52.278;21.056;2023-04-03T07:20:12;3.60;53.87
67354;SHT30;54238;52.278;21.056;2023-04-03T07:22:42;3.70;53.56
67354;SHT30;54238;52.278;21.056;2023-04-03T07:25:11;3.79;53.04
67354;SHT30;54238;52.278;21.056;2023-04-03T07:27:44;3.88;52.94
67354;SHT30;54238;52.278;21.056;2023-04-03T07:30:11;3.95;52.80
67354;SHT30;54238;52.278;21.056;2023-04-03T07:32:41;4.05;52.14
67354;SHT30;54238;52.278;21.056;2023-04-03T07:35:10;4.13;51.52
67354;SHT30;54238;52.278;21.056;2023-04-03T07:37:44;4.17;51.40
67354;SHT30;54238;52.278;21.056;2023-04-03T07:40:15;4.21;50.87
67354;SHT30;54238;52.278;21.056;2023-04-03T07:42:45;4.23;50.94
67354;SHT30;54238;52.278;21.056;2023-04-03T07:45:13;4.33;51.41
67354;SHT30;54238;52.278;21.056;2023-04-03T07:47:44;4.46;50.98
67354;SHT30;54238;52.278;21.056;2023-04-03T07:50:16;4.59;50.67
67354;SHT30;54238;52.278;21.056;2023-04-03T07:52:44;4.70;50.15
67354;SHT30;54238;52.278;21.056;2023-04-03T07:55:15;4.81;49.64
67354;SHT30;54238;52.278;21.056;2023-04-03T07:57:44;4.92;49.12
67354;SHT30;54238;52.278;21.056;2023-04-03T08:00:14;5.05;48.76
67354;SHT30;54238;52.278;21.056;2023-04-03T08:02:44;5.20;48.41
67354;SHT30;54238;52.278;21.056;2023-04-03T08:05:20;5.28;47.71
67354;SHT30;54238;52.278;21.056;2023-04-03T08:07:50;5.36;47.10
67354;SHT30;54238;52.278;21.056;2023-04-03T08:10:17;5.44;46.79
67354;SHT30;54238;52.278;21.056;2023-04-03T08:12:45;5.61;46.55
67354;SHT30;54238;52.278;21.056;2023-04-03T08:15:15;5.79;46.46
67354;SHT30;54238;52.278;21.056;2023-04-03T08:17:43;5.94;45.91
67354;SHT30;54238;52.278;21.056;2023-04-03T08:20:12;6.05;45.70
67354;SHT30;54238;52.278;21.056;2023-04-03T08:22:40;6.21;45.16
67354;SHT30;54238;52.278;21.056;2023-04-03T08:25:07;6.37;44.66
67354;SHT30;54238;52.278;21.056;2023-04-03T08:27:35;6.53;44.43
67354;SHT30;54238;52.278;21.056;2023-04-03T08:30:07;6.70;43.67
67354;SHT30;54238;52.278;21.056;2023-04-03T08:32:39;6.89;43.24
67354;SHT30;54238;52.278;21.056;2023-04-03T08:35:11;7.05;41.91
67354;SHT30;54238;52.278;21.056;2023-04-03T08:37:41;7.10;41.70
67354;SHT30;54238;52.278;21.056;2023-04-03T08:40:12;7.16;41.49
67354;SHT30;54238;52.278;21.056;2023-04-03T08:46:06;7.42;41.04
67354;SHT30;54238;52.278;21.056;2023-04-03T08:48:31;7.52;39.77
67354;SHT30;54238;52.278;21.056;2023-04-03T08:51:08;7.59;39.21
67354;SHT30;54238;52.278;21.056;2023-04-03T08:54:06;7.75;38.90
67354;SHT30;54238;52.278;21.056;2023-04-03T08:56:46;7.88;38.76
67354;SHT30;54238;52.278;21.056;2023-04-03T08:59:14;7.94;39.03
67354;SHT30;54238;52.278;21.056;2023-04-03T09:01:57;8.06;38.98
67354;SHT30;54238;52.278;21.056;2023-04-03T09:04:32;8.16;37.82
67354;SHT30;54238;52.278;21.056;2023-04-03T09:07:03;8.27;37.34
67354;SHT30;54238;52.278;21.056;2023-04-03T09:09:41;8.46;37.00
67354;SHT30;54238;52.278;21.056;2023-04-03T09:12:15;8.76;37.03
67354;SHT30;54238;52.278;21.056;2023-04-03T09:18:03;9.49;37.14
67354;SHT30;54238;52.278;21.056;2023-04-03T09:23:41;10.10;33.60
67354;SHT30;54238;52.278;21.056;2023-04-03T09:26:36;10.23;32.84
67354;SHT30;54238;52.278;21.056;2023-04-03T09:29:17;10.42;32.97
67354;SHT30;54238;52.278;21.056;2023-04-03T09:32:01;10.76;32.13
67354;SHT30;54238;52.278;21.056;2023-04-03T09:34:48;11.02;30.63
67354;SHT30;54238;52.278;21.056;2023-04-03T09:37:52;11.31;31.07
67354;SHT30;54238;52.278;21.056;2023-04-03T09:40:37;11.62;30.06
67354;SHT30;54238;52.278;21.056;2023-04-03T09:43:26;11.82;29.64
67354;SHT30;54238;52.278;21.056;2023-04-03T09:49:01;12.28;28.68
67354;SHT30;54238;52.278;21.056;2023-04-03T09:51:32;12.53;28.29
67354;SHT30;54238;52.278;21.056;2023-04-03T09:54:01;12.69;27.93
67354;SHT30;54238;52.278;21.056;2023-04-03T09:57:08;12.94;28.04
67354;SHT30;54238;52.278;21.056;2023-04-03T09:59:45;13.40;28.06
67354;SHT30;54238;52.278;21.056;2023-04-03T10:02:45;13.82;27.69
67354;SHT30;54238;52.278;21.056;2023-04-03T10:05:31;13.81;27.37
67354;SHT30;54238;52.278;21.056;2023-04-03T10:10:44;13.67;27.17
67354;SHT30;54238;52.278;21.056;2023-04-03T10:13:34;13.89;27.42
67354;SHT30;54238;52.278;21.056;2023-04-03T10:16:09;14.22;26.87
67354;SHT30;54238;52.278;21.056;2023-04-03T10:18:46;14.19;26.13
67354;SHT30;54238;52.278;21.056;2023-04-03T10:24:23;14.44;25.54
67354;SHT30;54238;52.278;21.056;2023-04-03T10:33:05;15.73;24.82
67354;SHT30;54238;52.278;21.056;2023-04-03T10:47:17;13.65;26.47
67354;SHT30;54238;52.278;21.056;2023-04-03T10:58:30;13.32;26.77
67354;SHT30;54238;52.278;21.056;2023-04-03T11:01:06;13.57;26.85
67354;SHT30;54238;52.278;21.056;2023-04-03T11:03:40;13.82;26.28
67354;SHT30;54238;52.278;21.056;2023-04-03T11:06:19;14.45;26.30
67354;SHT30;54238;52.278;21.056;2023-04-03T11:08:53;15.17;25.94
67354;SHT30;54238;52.278;21.056;2023-04-03T11:11:26;15.56;26.11
67354;SHT30;54238;52.278;21.056;2023-04-03T11:14:05;15.27;25.47
67354;SHT30;54238;52.278;21.056;2023-04-03T11:16:52;14.72;25.27
67354;SHT30;54238;52.278;21.056;2023-04-03T11:19:41;14.59;25.63
67354;SHT30;54238;52.278;21.056;2023-04-03T11:22:25;15.47;25.12
67354;SHT30;54238;52.278;21.056;2023-04-03T11:25:04;15.94;24.54
67354;SHT30;54238;52.278;21.056;2023-04-03T11:27:45;15.46;24.57
67354;SHT30;54238;52.278;21.056;2023-04-03T11:33:55;14.22;25.48
67354;SHT30;54238;52.278;21.056;2023-04-03T11:39:30;14.33;25.94
67354;SHT30;54238;52.278;21.056;2023-04-03T11:48:00;13.50;25.81
67354;SHT30;54238;52.278;21.056;2023-04-03T11:50:49;14.27;25.95
67354;SHT30;54238;52.278;21.056;2023-04-03T12:14:01;16.62;22.60
67354;SHT30;54238;52.278;21.056;2023-04-03T12:16:46;15.96;22.92
67354;SHT30;54238;52.278;21.056;2023-04-03T12:41:28;15.95;23.10
67354;SHT30;54238;52.278;21.056;2023-04-03T12:44:25;15.69;23.57
67354;SHT30;54238;52.278;21.056;2023-04-03T12:47:33;15.34;23.64
67354;SHT30;54238;52.278;21.056;2023-04-03T12:50:03;15.01;23.74
67354;SHT30;54238;52.278;21.056;2023-04-03T12:53:06;14.57;24.13
67354;SHT30;54238;52.278;21.056;2023-04-03T12:55:44;14.08;24.46
67354;SHT30;54238;52.278;21.056;2023-04-03T12:58:24;14.33;24.68
67354;SHT30;54238;52.278;21.056;2023-04-03T13:01:01;14.62;24.80
67354;SHT30;54238;52.278;21.056;2023-04-03T13:03:42;14.62;24.58
67354;SHT30;54238;52.278;21.056;2023-04-03T13:06:30;14.31;24.21
67354;SHT30;54238;52.278;21.056;2023-04-03T13:09:27;13.75;24.21
67354;SHT30;54238;52.278;21.056;2023-04-03T13:12:09;13.98;24.67
67354;SHT30;54238;52.278;21.056;2023-04-03T13:14:51;13.94;24.52
67354;SHT30;54238;52.278;21.056;2023-04-03T13:17:25;13.53;24.75
67354;SHT30;54238;52.278;21.056;2023-04-03T13:19:54;13.17;25.52
67354;SHT30;54238;52.278;21.056;2023-04-03T13:22:26;12.86;25.81
67354;SHT30;54238;52.278;21.056;2023-04-03T13:25:06;12.53;26.13
67354;SHT30;54238;52.278;21.056;2023-04-03T13:27:40;12.54;26.15
67354;SHT30;54238;52.278;21.056;2023-04-03T13:30:33;12.54;26.13
67354;SHT30;54238;52.278;21.056;2023-04-03T13:33:24;12.37;26.92
67354;SHT30;54238;52.278;21.056;2023-04-03T13:36:05;12.16;27.17
67354;SHT30;54238;52.278;21.056;2023-04-03T13:38:46;11.91;27.33
67354;SHT30;54238;52.278;21.056;2023-04-03T13:41:40;11.58;27.89
67354;SHT30;54238;52.278;21.056;2023-04-03T13:52:33;11.78;27.74
67354;SHT30;54238;52.278;21.056;2023-04-03T13:55:22;11.65;28.20
67354;SHT30;54238;52.278;21.056;2023-04-03T13:58:20;11.55;28.66
67354;SHT30;54238;52.278;21.056;2023-04-03T14:03:42;11.86;28.21
67354;SHT30;54238;52.278;21.056;2023-04-03T14:06:22;13.13;27.16
67354;SHT30;54238;52.278;21.056;2023-04-03T14:08:51;13.69;26.46
67354;SHT30;54238;52.278;21.056;2023-04-03T14:11:20;13.95;26.04
67354;SHT30;54238;52.278;21.056;2023-04-03T14:13:58;13.67;26.01
67354;SHT30;54238;52.278;21.056;2023-04-03T14:16:38;13.27;26.08
67354;SHT30;54238;52.278;21.056;2023-04-03T14:19:18;12.97;25.84
67354;SHT30;54238;52.278;21.056;2023-04-03T14:21:50;13.52;25.61
67354;SHT30;54238;52.278;21.056;2023-04-03T14:24:22;14.36;25.37
67354;SHT30;54238;52.278;21.056;2023-04-03T14:26:51;14.62;24.86
67354;SHT30;54238;52.278;21.056;2023-04-03T14:29:24;14.12;24.71
67354;SHT30;54238;52.278;21.056;2023-04-03T14:31:52;13.75;24.92
67354;SHT30;54238;52.278;21.056;2023-04-03T14:34:19;13.33;25.52
67354;SHT30;54238;52.278;21.056;2023-04-03T14:36:49;12.92;25.88
67354;SHT30;54238;52.278;21.056;2023-04-03T14:39:21;12.66;26.04
67354;SHT30;54238;52.278;21.056;2023-04-03T14:41:50;12.34;26.24
67354;SHT30;54238;52.278;21.056;2023-04-03T14:44:22;12.01;26.33
67354;SHT30;54238;52.278;21.056;2023-04-03T14:46:52;11.71;26.48
67354;SHT30;54238;52.278;21.056;2023-04-03T14:49:22;11.40;26.98
67354;SHT30;54238;52.278;21.056;2023-04-03T14:51:57;11.11;27.58
67354;SHT30;54238;52.278;21.056;2023-04-03T14:54:26;10.88;28.13
67354;SHT30;54238;52.278;21.056;2023-04-03T14:56:58;10.68;28.34
67354;SHT30;54238;52.278;21.056;2023-04-03T14:59:29;10.50;28.74
67354;SHT30;54238;52.278;21.056;2023-04-03T15:02:00;10.33;28.80
67354;SHT30;54238;52.278;21.056;2023-04-03T15:04:33;10.21;28.88
67354;SHT30;54238;52.278;21.056;2023-04-03T15:07:03;10.10;29.12
67354;SHT30;54238;52.278;21.056;2023-04-03T15:09:30;9.98;29.18
67354;SHT30;54238;52.278;21.056;2023-04-03T15:11:59;9.81;29.47
67354;SHT30;54238;52.278;21.056;2023-04-03T15:14:27;9.64;29.85
67354;SHT30;54238;52.278;21.056;2023-04-03T15:16:56;9.49;30.12
67354;SHT30;54238;52.278;21.056;2023-04-03T15:19:25;9.37;30.56
67354;SHT30;54238;52.278;21.056;2023-04-03T15:21:55;9.25;31.02
67354;SHT30;54238;52.278;21.056;2023-04-03T15:24:25;9.09;31.36
67354;SHT30;54238;52.278;21.056;2023-04-03T15:26:52;8.93;31.78
67354;SHT30;54238;52.278;21.056;2023-04-03T15:29:19;8.77;32.23
67354;SHT30;54238;52.278;21.056;2023-04-03T15:31:48;8.56;32.42
67354;SHT30;54238;52.278;21.056;2023-04-03T15:34:18;8.39;32.52
67354;SHT30;54238;52.278;21.056;2023-04-03T15:36:45;8.33;32.70
67354;SHT30;54238;52.278;21.056;2023-04-03T15:39:15;8.29;32.94
67354;SHT30;54238;52.278;21.056;2023-04-03T15:41:44;8.27;33.05
67354;SHT30;54238;52.278;21.056;2023-04-03T15:44:12;8.24;32.85
67354;SHT30;54238;52.278;21.056;2023-04-03T15:46:39;8.16;32.90
67354;SHT30;54238;52.278;21.056;2023-04-03T15:49:07;8.12;32.99
67354;SHT30;54238;52.278;21.056;2023-04-03T15:51:37;8.08;33.01
67354;SHT30;54238;52.278;21.056;2023-04-03T15:54:04;8.02;33.47
67354;SHT30;54238;52.278;21.056;2023-04-03T15:56:33;7.95;33.74
67354;SHT30;54238;52.278;21.056;2023-04-03T15:59:05;7.91;33.87
67354;SHT30;54238;52.278;21.056;2023-04-03T16:01:37;7.88;33.72
67354;SHT30;54238;52.278;21.056;2023-04-03T16:04:07;7.84;33.89
67354;SHT30;54238;52.278;21.056;2023-04-03T16:06:38;7.78;33.95
67354;SHT30;54238;52.278;21.056;2023-04-03T16:09:05;7.75;34.03
67354;SHT30;54238;52.278;21.056;2023-04-03T16:11:38;7.69;34.39
67354;SHT30;54238;52.278;21.056;2023-04-03T16:14:13;7.66;34.28
67354;SHT30;54238;52.278;21.056;2023-04-03T16:16:43;7.62;34.37
67354;SHT30;54238;52.278;21.056;2023-04-03T16:19:12;7.59;34.47
67354;SHT30;54238;52.278;21.056;2023-04-03T16:21:42;7.53;34.94
67354;SHT30;54238;52.278;21.056;2023-04-03T16:24:09;7.48;34.98
67354;SHT30;54238;52.278;21.056;2023-04-03T16:26:43;7.44;34.96
67354;SHT30;54238;52.278;21.056;2023-04-03T16:29:15;7.45;35.00
67354;SHT30;54238;52.278;21.056;2023-04-03T16:31:42;7.46;35.06
67354;SHT30;54238;52.278;21.056;2023-04-03T16:34:10;7.40;35.48
67354;SHT30;54238;52.278;21.056;2023-04-03T16:36:40;7.32;35.82
67354;SHT30;54238;52.278;21.056;2023-04-03T16:39:08;7.26;35.94
67354;SHT30;54238;52.278;21.056;2023-04-03T16:41:36;7.23;35.85
67354;SHT30;54238;52.278;21.056;2023-04-03T16:44:08;7.24;35.90
67354;SHT30;54238;52.278;21.056;2023-04-03T16:46:37;7.24;36.10
67354;SHT30;54238;52.278;21.056;2023-04-03T16:49:06;7.22;36.39
67354;SHT30;54238;52.278;21.056;2023-04-03T16:51:38;7.19;36.25
67354;SHT30;54238;52.278;21.056;2023-04-03T16:54:06;7.17;36.38
67354;SHT30;54238;52.278;21.056;2023-04-03T16:56:39;7.14;36.47
67354;SHT30;54238;52.278;21.056;2023-04-03T16:59:11;7.08;36.57
67354;SHT30;54238;52.278;21.056;2023-04-03T17:01:38;7.01;36.42
67354;SHT30;54238;52.278;21.056;2023-04-03T17:04:05;6.98;36.59
67354;SHT30;54238;52.278;21.056;2023-04-03T17:06:32;6.95;36.72
67354;SHT30;54238;52.278;21.056;2023-04-03T17:08:59;6.92;36.86
67354;SHT30;54238;52.278;21.056;2023-04-03T17:11:27;6.87;36.80
67354;SHT30;54238;52.278;21.056;2023-04-03T17:13:59;6.83;36.54
67354;SHT30;54238;52.278;21.056;2023-04-03T17:16:28;6.79;36.86
67354;SHT30;54238;52.278;21.056;2023-04-03T17:18:57;6.74;37.04
67354;SHT30;54238;52.278;21.056;2023-04-03T17:21:27;6.69;37.29
67354;SHT30;54238;52.278;21.056;2023-04-03T17:24:00;6.64;37.13
67354;SHT30;54238;52.278;21.056;2023-04-03T17:26:34;6.62;37.02
67354;SHT30;54238;52.278;21.056;2023-04-03T17:29:03;6.63;37.17
67354;SHT30;54238;52.278;21.056;2023-04-03T17:31:33;6.63;37.41
67354;SHT30;54238;52.278;21.056;2023-04-03T17:34:03;6.58;37.40
67354;SHT30;54238;52.278;21.056;2023-04-03T17:36:32;6.54;37.17
67354;SHT30;54238;52.278;21.056;2023-04-03T17:39:02;6.51;37.20
67354;SHT30;54238;52.278;21.056;2023-04-03T17:41:33;6.49;37.31
67354;SHT30;54238;52.278;21.056;2023-04-03T17:44:01;6.49;37.36
67354;SHT30;54238;52.278;21.056;2023-04-03T17:46:29;6.46;37.37
67354;SHT30;54238;52.278;21.056;2023-04-03T17:49:01;6.43;37.66
67354;SHT30;54238;52.278;21.056;2023-04-03T17:51:33;6.38;38.16
67354;SHT30;54238;52.278;21.056;2023-04-03T17:54:00;6.34;38.49
67354;SHT30;54238;52.278;21.056;2023-04-03T17:56:28;6.30;38.82
67354;SHT30;54238;52.278;21.056;2023-04-03T17:58:57;6.26;38.86
67354;SHT30;54238;52.278;21.056;2023-04-03T18:01:27;6.24;39.07
67354;SHT30;54238;52.278;21.056;2023-04-03T18:03:58;6.25;39.03
67354;SHT30;54238;52.278;21.056;2023-04-03T18:07:07;6.25;39.15
67354;SHT30;54238;52.278;21.056;2023-04-03T18:09:29;6.23;39.45
67354;SHT30;54238;52.278;21.056;2023-04-03T18:12:04;6.20;39.46
67354;SHT30;54238;52.278;21.056;2023-04-03T18:14:38;6.18;39.58